sensor_id;sensor_type;location;lat;lon;timestamp;pressure;altitude;pressure_sealevel;temperature
72405;BMP280;60395;52.020;113.548;2023-07-29T00:00:12;92221.16;;;32.75
72405;BMP280;60395;52.020;113.548;2023-07-29T00:03:15;92224.53;;;31.68
72405;BMP280;60395;52.020;113.548;2023-07-29T00:06:19;92229.72;;;30.65
72405;BMP280;60395;52.020;113.548;2023-07-29T00:09:28;92236.53;;;29.74
72405;BMP280;60395;52.020;113.548;2023-07-29T00:12:32;92243.75;;;29.24
72405;BMP280;60395;52.020;113.548;2023-07-29T00:15:35;92253.31;;;28.62
72405;BMP280;60395;52.020;113.548;2023-07-29T00:18:39;92243.81;;;28.06
72405;BMP280;60395;52.020;113.548;2023-07-29T00:21:43;92249.59;;;27.53
72405;BMP280;60395;52.020;113.548;2023-07-29T00:24:52;92256.50;;;27.37
72405;BMP280;60395;52.020;113.548;2023-07-29T00:27:58;92263.72;;;27.53
72405;BMP280;60395;52.020;113.548;2023-07-29T00:31:02;92264.34;;;28.03
72405;BMP280;60395;52.020;113.548;2023-07-29T00:34:08;92271.03;;;28.74
72405;BMP280;60395;52.020;113.548;2023-07-29T00:37:12;92263.19;;;29.78
72405;BMP280;60395;52.020;113.548;2023-07-29T00:40:19;92259.16;;;31.43
72405;BMP280;60395;52.020;113.548;2023-07-29T00:43:23;92257.75;;;31.92
72405;BMP280;60395;52.020;113.548;2023-07-29T00:46:27;92270.50;;;33.70
72405;BMP280;60395;52.020;113.548;2023-07-29T00:49:32;92265.06;;;32.95
72405;BMP280;60395;52.020;113.548;2023-07-29T00:52:37;92271.28;;;32.23
72405;BMP280;60395;52.020;113.548;2023-07-29T00:55:41;92268.75;;;32.63
72405;BMP280;60395;52.020;113.548;2023-07-29T00:58:44;92260.88;;;32.37
72405;BMP280;60395;52.020;113.548;2023-07-29T01:01:49;92267.38;;;31.30
72405;BMP280;60395;52.020;113.548;2023-07-29T01:04:57;92267.09;;;30.51
72405;BMP280;60395;52.020;113.548;2023-07-29T01:08:21;92266.53;;;29.92
72405;BMP280;60395;52.020;113.548;2023-07-29T01:15:15;92258.59;;;28.77
72405;BMP280;60395;52.020;113.548;2023-07-29T01:18:33;92261.69;;;28.38
72405;BMP280;60395;52.020;113.548;2023-07-29T01:21:39;92263.59;;;27.40
72405;BMP280;60395;52.020;113.548;2023-07-29T01:24:42;92262.59;;;27.07
72405;BMP280;60395;52.020;113.548;2023-07-29T01:27:46;92270.56;;;27.15
72405;BMP280;60395;52.020;113.548;2023-07-29T01:30:57;92279.91;;;27.16
72405;BMP280;60395;52.020;113.548;2023-07-29T01:34:09;92292.53;;;27.33
72405;BMP280;60395;52.020;113.548;2023-07-29T01:37:19;92286.19;;;27.21
72405;BMP280;60395;52.020;113.548;2023-07-29T01:40:27;92289.84;;;26.66
72405;BMP280;60395;52.020;113.548;2023-07-29T01:43:31;92279.88;;;26.19
72405;BMP280;60395;52.020;113.548;2023-07-29T01:46:35;92282.56;;;25.96
72405;BMP280;60395;52.020;113.548;2023-07-29T01:49:38;92277.09;;;25.89
72405;BMP280;60395;52.020;113.548;2023-07-29T01:52:42;92280.84;;;25.77
72405;BMP280;60395;52.020;113.548;2023-07-29T01:55:45;92279.53;;;25.61
72405;BMP280;60395;52.020;113.548;2023-07-29T01:58:49;92281.13;;;25.58
72405;BMP280;60395;52.020;113.548;2023-07-29T02:01:52;92279.84;;;25.57
72405;BMP280;60395;52.020;113.548;2023-07-29T02:04:55;92285.41;;;25.55
72405;BMP280;60395;52.020;113.548;2023-07-29T02:07:58;92293.28;;;25.57
72405;BMP280;60395;52.020;113.548;2023-07-29T02:11:02;92296.53;;;25.42
72405;BMP280;60395;52.020;113.548;2023-07-29T02:14:05;92285.84;;;25.34
72405;BMP280;60395;52.020;113.548;2023-07-29T02:17:09;92281.59;;;25.28
72405;BMP280;60395;52.020;113.548;2023-07-29T02:20:12;92290.47;;;25.27
72405;BMP280;60395;52.020;113.548;2023-07-29T02:23:16;92284.03;;;25.15
72405;BMP280;60395;52.020;113.548;2023-07-29T02:26:20;92273.31;;;25.07
72405;BMP280;60395;52.020;113.548;2023-07-29T02:29:23;92283.88;;;25.17
72405;BMP280;60395;52.020;113.548;2023-07-29T02:32:28;92283.31;;;25.32
72405;BMP280;60395;52.020;113.548;2023-07-29T02:35:31;92280.69;;;25.47
72405;BMP280;60395;52.020;113.548;2023-07-29T02:38:35;92281.06;;;25.67
72405;BMP280;60395;52.020;113.548;2023-07-29T02:41:38;92282.19;;;25.85
72405;BMP280;60395;52.020;113.548;2023-07-29T02:44:41;92280.47;;;26.05
72405;BMP280;60395;52.020;113.548;2023-07-29T02:47:44;92290.09;;;26.41
72405;BMP280;60395;52.020;113.548;2023-07-29T02:50:48;92293.00;;;26.69
72405;BMP280;60395;52.020;113.548;2023-07-29T02:53:51;92286.78;;;27.00
72405;BMP280;60395;52.020;113.548;2023-07-29T02:56:55;92288.47;;;27.19
72405;BMP280;60395;52.020;113.548;2023-07-29T02:59:58;92281.38;;;27.37
72405;BMP280;60395;52.020;113.548;2023-07-29T03:03:01;92283.53;;;27.65
72405;BMP280;60395;52.020;113.548;2023-07-29T03:06:07;92285.47;;;27.73
72405;BMP280;60395;52.020;113.548;2023-07-29T03:09:11;92285.41;;;27.66
72405;BMP280;60395;52.020;113.548;2023-07-29T03:12:14;92285.03;;;27.70
72405;BMP280;60395;52.020;113.548;2023-07-29T03:15:17;92285.41;;;27.66
72405;BMP280;60395;52.020;113.548;2023-07-29T03:18:20;92288.88;;;27.58
72405;BMP280;60395;52.020;113.548;2023-07-29T03:21:24;92279.91;;;27.53
72405;BMP280;60395;52.020;113.548;2023-07-29T03:24:27;92270.13;;;27.50
72405;BMP280;60395;52.020;113.548;2023-07-29T03:27:31;92274.50;;;27.53
72405;BMP280;60395;52.020;113.548;2023-07-29T03:30:36;92281.66;;;27.63
72405;BMP280;60395;52.020;113.548;2023-07-29T03:33:41;92275.56;;;27.78
72405;BMP280;60395;52.020;113.548;2023-07-29T03:36:44;92279.78;;;27.83
72405;BMP280;60395;52.020;113.548;2023-07-29T03:39:50;92275.22;;;27.88
72405;BMP280;60395;52.020;113.548;2023-07-29T03:42:54;92271.59;;;27.98
72405;BMP280;60395;52.020;113.548;2023-07-29T03:45:58;92278.09;;;28.08
72405;BMP280;60395;52.020;113.548;2023-07-29T03:49:01;92275.06;;;28.19
72405;BMP280;60395;52.020;113.548;2023-07-29T03:52:06;92265.31;;;28.22
72405;BMP280;60395;52.020;113.548;2023-07-29T03:55:09;92260.53;;;28.22
72405;BMP280;60395;52.020;113.548;2023-07-29T03:58:13;92266.91;;;28.12
72405;BMP280;60395;52.020;113.548;2023-07-29T04:01:16;92259.50;;;27.97
72405;BMP280;60395;52.020;113.548;2023-07-29T04:04:20;92256.78;;;27.91
72405;BMP280;60395;52.020;113.548;2023-07-29T04:07:24;92251.63;;;27.95
72405;BMP280;60395;52.020;113.548;2023-07-29T04:10:27;92247.72;;;28.01
72405;BMP280;60395;52.020;113.548;2023-07-29T04:13:31;92256.81;;;27.97
72405;BMP280;60395;52.020;113.548;2023-07-29T04:16:34;92253.69;;;27.95
72405;BMP280;60395;52.020;113.548;2023-07-29T04:19:38;92254.75;;;27.98
72405;BMP280;60395;52.020;113.548;2023-07-29T04:22:41;92246.44;;;27.93
72405;BMP280;60395;52.020;113.548;2023-07-29T04:25:44;92248.06;;;27.90
72405;BMP280;60395;52.020;113.548;2023-07-29T04:28:48;92243.63;;;27.80
72405;BMP280;60395;52.020;113.548;2023-07-29T04:31:51;92238.97;;;27.72
72405;BMP280;60395;52.020;113.548;2023-07-29T04:34:54;92245.81;;;27.71
72405;BMP280;60395;52.020;113.548;2023-07-29T04:37:58;92239.44;;;27.75
72405;BMP280;60395;52.020;113.548;2023-07-29T04:41:01;92237.78;;;27.78
72405;BMP280;60395;52.020;113.548;2023-07-29T04:44:04;92235.63;;;27.93
72405;BMP280;60395;52.020;113.548;2023-07-29T04:47:08;92239.69;;;28.07
72405;BMP280;60395;52.020;113.548;2023-07-29T04:50:11;92236.13;;;28.09
72405;BMP280;60395;52.020;113.548;2023-07-29T04:53:14;92230.63;;;27.89
72405;BMP280;60395;52.020;113.548;2023-07-29T04:56:18;92235.09;;;27.78
72405;BMP280;60395;52.020;113.548;2023-07-29T04:59:21;92232.34;;;27.71
72405;BMP280;60395;52.020;113.548;2023-07-29T05:02:24;92237.59;;;27.80
72405;BMP280;60395;52.020;113.548;2023-07-29T05:05:29;92226.66;;;27.88
72405;BMP280;60395;52.020;113.548;2023-07-29T05:08:32;92235.06;;;27.99
72405;BMP280;60395;52.020;113.548;2023-07-29T05:11:36;92233.78;;;27.98
72405;BMP280;60395;52.020;113.548;2023-07-29T05:14:39;92233.44;;;27.81
72405;BMP280;60395;52.020;113.548;2023-07-29T05:17:42;92240.16;;;27.88
72405;BMP280;60395;52.020;113.548;2023-07-29T05:20:47;92233.16;;;27.98
72405;BMP280;60395;52.020;113.548;2023-07-29T05:23:50;92232.16;;;28.01
72405;BMP280;60395;52.020;113.548;2023-07-29T05:26:54;92234.69;;;28.10
72405;BMP280;60395;52.020;113.548;2023-07-29T05:29:57;92230.03;;;28.24
72405;BMP280;60395;52.020;113.548;2023-07-29T05:33:00;92225.75;;;28.40
72405;BMP280;60395;52.020;113.548;2023-07-29T05:36:04;92225.69;;;28.68
72405;BMP280;60395;52.020;113.548;2023-07-29T05:39:07;92221.63;;;28.88
72405;BMP280;60395;52.020;113.548;2023-07-29T05:42:11;92226.81;;;28.97
72405;BMP280;60395;52.020;113.548;2023-07-29T05:45:14;92221.03;;;29.01
72405;BMP280;60395;52.020;113.548;2023-07-29T05:48:19;92215.47;;;29.23
72405;BMP280;60395;52.020;113.548;2023-07-29T05:51:23;92211.53;;;29.35
72405;BMP280;60395;52.020;113.548;2023-07-29T05:54:26;92218.16;;;29.29
72405;BMP280;60395;52.020;113.548;2023-07-29T05:57:29;92215.88;;;29.25
72405;BMP280;60395;52.020;113.548;2023-07-29T06:00:32;92202.56;;;29.30
72405;BMP280;60395;52.020;113.548;2023-07-29T06:03:36;92200.72;;;29.67
72405;BMP280;60395;52.020;113.548;2023-07-29T06:06:40;92194.69;;;29.54
72405;BMP280;60395;52.020;113.548;2023-07-29T06:09:43;92191.97;;;29.54
72405;BMP280;60395;52.020;113.548;2023-07-29T06:12:48;92203.00;;;29.58
72405;BMP280;60395;52.020;113.548;2023-07-29T06:15:51;92196.97;;;29.58
72405;BMP280;60395;52.020;113.548;2023-07-29T06:18:56;92191.56;;;29.58
72405;BMP280;60395;52.020;113.548;2023-07-29T06:21:59;92190.06;;;29.85
72405;BMP280;60395;52.020;113.548;2023-07-29T06:25:04;92188.25;;;29.64
72405;BMP280;60395;52.020;113.548;2023-07-29T06:28:09;92192.19;;;29.65
72405;BMP280;60395;52.020;113.548;2023-07-29T06:31:13;92190.09;;;29.52
72405;BMP280;60395;52.020;113.548;2023-07-29T06:34:16;92193.81;;;29.23
72405;BMP280;60395;52.020;113.548;2023-07-29T06:37:20;92192.69;;;28.87
72405;BMP280;60395;52.020;113.548;2023-07-29T06:40:25;92180.84;;;28.90
72405;BMP280;60395;52.020;113.548;2023-07-29T06:43:28;92190.25;;;29.04
72405;BMP280;60395;52.020;113.548;2023-07-29T06:46:31;92177.97;;;29.19
72405;BMP280;60395;52.020;113.548;2023-07-29T06:49:35;92179.06;;;29.35
72405;BMP280;60395;52.020;113.548;2023-07-29T06:52:38;92183.44;;;29.38
72405;BMP280;60395;52.020;113.548;2023-07-29T06:55:43;92181.59;;;29.50
72405;BMP280;60395;52.020;113.548;2023-07-29T06:58:46;92180.50;;;29.79
72405;BMP280;60395;52.020;113.548;2023-07-29T07:01:50;92175.72;;;29.54
72405;BMP280;60395;52.020;113.548;2023-07-29T07:04:53;92175.75;;;29.47
72405;BMP280;60395;52.020;113.548;2023-07-29T07:07:56;92170.09;;;29.36
72405;BMP280;60395;52.020;113.548;2023-07-29T07:11:00;92171.97;;;29.31
72405;BMP280;60395;52.020;113.548;2023-07-29T07:14:03;92178.66;;;29.32
72405;BMP280;60395;52.020;113.548;2023-07-29T07:17:06;92173.22;;;29.26
72405;BMP280;60395;52.020;113.548;2023-07-29T07:20:14;92181.34;;;29.26
72405;BMP280;60395;52.020;113.548;2023-07-29T07:23:18;92182.59;;;29.27
72405;BMP280;60395;52.020;113.548;2023-07-29T07:26:21;92177.56;;;29.16
72405;BMP280;60395;52.020;113.548;2023-07-29T07:29:25;92174.44;;;29.14
72405;BMP280;60395;52.020;113.548;2023-07-29T07:32:28;92185.25;;;29.07
72405;BMP280;60395;52.020;113.548;2023-07-29T07:35:31;92181.09;;;29.08
72405;BMP280;60395;52.020;113.548;2023-07-29T07:38:34;92175.66;;;29.01
72405;BMP280;60395;52.020;113.548;2023-07-29T07:41:38;92168.97;;;28.87
72405;BMP280;60395;52.020;113.548;2023-07-29T07:44:42;92160.25;;;28.80
72405;BMP280;60395;52.020;113.548;2023-07-29T07:47:46;92161.91;;;28.84
72405;BMP280;60395;52.020;113.548;2023-07-29T07:50:49;92159.63;;;28.86
72405;BMP280;60395;52.020;113.548;2023-07-29T07:53:55;92159.88;;;28.97
72405;BMP280;60395;52.020;113.548;2023-07-29T07:56:59;92146.13;;;28.93
72405;BMP280;60395;52.020;113.548;2023-07-29T08:00:02;92153.63;;;28.99
72405;BMP280;60395;52.020;113.548;2023-07-29T08:03:13;92156.72;;;29.01
72405;BMP280;60395;52.020;113.548;2023-07-29T08:06:18;92150.53;;;29.10
72405;BMP280;60395;52.020;113.548;2023-07-29T08:09:21;92140.97;;;29.11
72405;BMP280;60395;52.020;113.548;2023-07-29T08:12:24;92149.47;;;29.00
72405;BMP280;60395;52.020;113.548;2023-07-29T08:15:27;92142.59;;;28.88
72405;BMP280;60395;52.020;113.548;2023-07-29T08:18:31;92138.63;;;28.87
72405;BMP280;60395;52.020;113.548;2023-07-29T08:21:34;92140.09;;;28.92
72405;BMP280;60395;52.020;113.548;2023-07-29T08:24:37;92140.31;;;28.97
72405;BMP280;60395;52.020;113.548;2023-07-29T08:27:40;92146.56;;;29.02
72405;BMP280;60395;52.020;113.548;2023-07-29T08:30:43;92139.06;;;29.02
72405;BMP280;60395;52.020;113.548;2023-07-29T08:33:47;92144.50;;;29.09
72405;BMP280;60395;52.020;113.548;2023-07-29T08:36:50;92143.25;;;29.15
72405;BMP280;60395;52.020;113.548;2023-07-29T08:39:53;92136.81;;;29.18
72405;BMP280;60395;52.020;113.548;2023-07-29T08:42:58;92138.47;;;29.09
72405;BMP280;60395;52.020;113.548;2023-07-29T08:46:04;92133.03;;;29.09
72405;BMP280;60395;52.020;113.548;2023-07-29T08:49:11;92130.78;;;29.24
72405;BMP280;60395;52.020;113.548;2023-07-29T08:52:16;92134.53;;;29.27
72405;BMP280;60395;52.020;113.548;2023-07-29T08:55:21;92133.28;;;29.33
72405;BMP280;60395;52.020;113.548;2023-07-29T08:58:25;92128.91;;;29.29
72405;BMP280;60395;52.020;113.548;2023-07-29T09:01:28;92134.72;;;29.32
72405;BMP280;60395;52.020;113.548;2023-07-29T09:04:33;92130.78;;;29.37
72405;BMP280;60395;52.020;113.548;2023-07-29T09:07:37;92132.44;;;29.41
72405;BMP280;60395;52.020;113.548;2023-07-29T09:10:41;92137.00;;;29.29
72405;BMP280;60395;52.020;113.548;2023-07-29T09:13:44;92133.47;;;29.24
72405;BMP280;60395;52.020;113.548;2023-07-29T09:16:48;92132.22;;;29.23
72405;BMP280;60395;52.020;113.548;2023-07-29T09:19:51;92122.25;;;29.15
72405;BMP280;60395;52.020;113.548;2023-07-29T09:22:58;92127.84;;;29.13
72405;BMP280;60395;52.020;113.548;2023-07-29T09:26:04;92134.09;;;29.05
72405;BMP280;60395;52.020;113.548;2023-07-29T09:29:07;92140.13;;;29.06
72405;BMP280;60395;52.020;113.548;2023-07-29T09:32:23;92126.81;;;29.10
72405;BMP280;60395;52.020;113.548;2023-07-29T09:35:33;92129.94;;;29.06
72405;BMP280;60395;52.020;113.548;2023-07-29T09:38:37;92125.94;;;28.98
72405;BMP280;60395;52.020;113.548;2023-07-29T09:41:40;92129.94;;;29.13
72405;BMP280;60395;52.020;113.548;2023-07-29T09:44:43;92132.00;;;28.99
72405;BMP280;60395;52.020;113.548;2023-07-29T09:47:47;92127.16;;;28.86
72405;BMP280;60395;52.020;113.548;2023-07-29T09:50:51;92133.63;;;28.96
72405;BMP280;60395;52.020;113.548;2023-07-29T09:53:54;92145.69;;;28.84
72405;BMP280;60395;52.020;113.548;2023-07-29T09:56:58;92139.66;;;28.77
72405;BMP280;60395;52.020;113.548;2023-07-29T10:00:01;92131.72;;;28.68
72405;BMP280;60395;52.020;113.548;2023-07-29T10:03:08;92144.78;;;28.66
72405;BMP280;60395;52.020;113.548;2023-07-29T10:06:12;92141.88;;;28.61
72405;BMP280;60395;52.020;113.548;2023-07-29T10:09:17;92132.69;;;28.52
72405;BMP280;60395;52.020;113.548;2023-07-29T10:12:22;92139.72;;;28.42
72405;BMP280;60395;52.020;113.548;2023-07-29T10:15:26;92141.38;;;28.33
72405;BMP280;60395;52.020;113.548;2023-07-29T10:18:31;92134.50;;;28.34
72405;BMP280;60395;52.020;113.548;2023-07-29T10:21:36;92136.56;;;28.33
72405;BMP280;60395;52.020;113.548;2023-07-29T10:24:41;92144.66;;;28.33
72405;BMP280;60395;52.020;113.548;2023-07-29T10:28:05;92143.22;;;28.34
72405;BMP280;60395;52.020;113.548;2023-07-29T10:31:09;92141.09;;;28.22
72405;BMP280;60395;52.020;113.548;2023-07-29T10:34:13;92144.38;;;28.16
72405;BMP280;60395;52.020;113.548;2023-07-29T10:37:16;92140.44;;;28.21
72405;BMP280;60395;52.020;113.548;2023-07-29T10:40:20;92136.22;;;28.02
72405;BMP280;60395;52.020;113.548;2023-07-29T10:43:35;92141.00;;;28.02
72405;BMP280;60395;52.020;113.548;2023-07-29T10:46:38;92139.06;;;27.94
72405;BMP280;60395;52.020;113.548;2023-07-29T10:49:43;92136.31;;;27.87
72405;BMP280;60395;52.020;113.548;2023-07-29T10:52:52;92137.53;;;27.82
72405;BMP280;60395;52.020;113.548;2023-07-29T10:55:55;92136.88;;;27.75
72405;BMP280;60395;52.020;113.548;2023-07-29T10:59:22;92135.63;;;27.74
72405;BMP280;60395;52.020;113.548;2023-07-29T11:02:30;92137.69;;;27.73
72405;BMP280;60395;52.020;113.548;2023-07-29T11:05:51;92134.56;;;27.71
72405;BMP280;60395;52.020;113.548;2023-07-29T11:08:55;92144.25;;;27.61
72405;BMP280;60395;52.020;113.548;2023-07-29T11:12:05;92141.28;;;27.57
72405;BMP280;60395;52.020;113.548;2023-07-29T11:18:12;92143.47;;;27.41
72405;BMP280;60395;52.020;113.548;2023-07-29T11:21:18;92140.88;;;27.33
72405;BMP280;60395;52.020;113.548;2023-07-29T11:24:21;92153.72;;;27.26
72405;BMP280;60395;52.020;113.548;2023-07-29T11:27:25;92157.78;;;27.18
72405;BMP280;60395;52.020;113.548;2023-07-29T11:30:28;92164.94;;;27.06
72405;BMP280;60395;52.020;113.548;2023-07-29T11:33:32;92162.72;;;26.94
72405;BMP280;60395;52.020;113.548;2023-07-29T11:36:35;92168.63;;;26.81
72405;BMP280;60395;52.020;113.548;2023-07-29T11:39:40;92157.91;;;26.73
72405;BMP280;60395;52.020;113.548;2023-07-29T11:42:45;92171.44;;;26.58
72405;BMP280;60395;52.020;113.548;2023-07-29T11:45:49;92167.50;;;26.42
72405;BMP280;60395;52.020;113.548;2023-07-29T11:48:54;92162.56;;;26.29
72405;BMP280;60395;52.020;113.548;2023-07-29T11:51:58;92167.50;;;26.11
72405;BMP280;60395;52.020;113.548;2023-07-29T11:55:02;92167.50;;;25.96
72405;BMP280;60395;52.020;113.548;2023-07-29T11:58:07;92162.28;;;25.79
72405;BMP280;60395;52.020;113.548;2023-07-29T12:01:10;92163.88;;;25.61
72405;BMP280;60395;52.020;113.548;2023-07-29T12:04:14;92168.13;;;25.43
72405;BMP280;60395;52.020;113.548;2023-07-29T12:07:18;92166.28;;;25.33
72405;BMP280;60395;52.020;113.548;2023-07-29T12:10:21;92176.38;;;25.17
72405;BMP280;60395;52.020;113.548;2023-07-29T12:13:25;92172.31;;;25.01
72405;BMP280;60395;52.020;113.548;2023-07-29T12:16:29;92174.31;;;24.86
72405;BMP280;60395;52.020;113.548;2023-07-29T12:19:39;92169.47;;;24.71
72405;BMP280;60395;52.020;113.548;2023-07-29T12:22:43;92173.97;;;24.57
72405;BMP280;60395;52.020;113.548;2023-07-29T12:25:46;92178.44;;;24.44
72405;BMP280;60395;52.020;113.548;2023-07-29T12:28:49;92182.44;;;24.28
72405;BMP280;60395;52.020;113.548;2023-07-29T12:32:01;92178.03;;;24.16
72405;BMP280;60395;52.020;113.548;2023-07-29T12:35:09;92187.69;;;24.04
72405;BMP280;60395;52.020;113.548;2023-07-29T12:38:21;92180.28;;;23.87
72405;BMP280;60395;52.020;113.548;2023-07-29T12:41:24;92181.09;;;23.77
72405;BMP280;60395;52.020;113.548;2023-07-29T12:44:33;92194.34;;;23.71
72405;BMP280;60395;52.020;113.548;2023-07-29T12:47:37;92195.59;;;23.55
72405;BMP280;60395;52.020;113.548;2023-07-29T12:50:40;92190.38;;;23.44
72405;BMP280;60395;52.020;113.548;2023-07-29T12:53:44;92198.09;;;23.31
72405;BMP280;60395;52.020;113.548;2023-07-29T12:56:47;92200.13;;;23.22
72405;BMP280;60395;52.020;113.548;2023-07-29T12:59:50;92194.75;;;23.13
72405;BMP280;60395;52.020;113.548;2023-07-29T13:02:54;92200.38;;;23.01
72405;BMP280;60395;52.020;113.548;2023-07-29T13:05:57;92202.72;;;22.96
72405;BMP280;60395;52.020;113.548;2023-07-29T13:09:01;92187.94;;;22.97
72405;BMP280;60395;52.020;113.548;2023-07-29T13:12:04;92193.94;;;22.98
72405;BMP280;60395;52.020;113.548;2023-07-29T13:15:08;92184.00;;;22.96
72405;BMP280;60395;52.020;113.548;2023-07-29T13:18:11;92189.03;;;23.00
72405;BMP280;60395;52.020;113.548;2023-07-29T13:21:14;92194.22;;;22.94
72405;BMP280;60395;52.020;113.548;2023-07-29T13:24:17;92196.22;;;22.85
72405;BMP280;60395;52.020;113.548;2023-07-29T13:27:21;92187.19;;;22.71
72405;BMP280;60395;52.020;113.548;2023-07-29T13:30:25;92189.50;;;22.58
72405;BMP280;60395;52.020;113.548;2023-07-29T13:33:28;92188.84;;;22.49
72405;BMP280;60395;52.020;113.548;2023-07-29T13:36:36;92197.16;;;22.45
72405;BMP280;60395;52.020;113.548;2023-07-29T13:39:40;92194.81;;;22.50
72405;BMP280;60395;52.020;113.548;2023-07-29T13:42:43;92203.03;;;22.56
72405;BMP280;60395;52.020;113.548;2023-07-29T13:45:47;92206.06;;;22.61
72405;BMP280;60395;52.020;113.548;2023-07-29T13:48:52;92204.50;;;22.64
72405;BMP280;60395;52.020;113.548;2023-07-29T13:51:55;92209.16;;;22.55
72405;BMP280;60395;52.020;113.548;2023-07-29T13:54:59;92217.13;;;22.37
72405;BMP280;60395;52.020;113.548;2023-07-29T13:58:02;92226.00;;;22.25
72405;BMP280;60395;52.020;113.548;2023-07-29T14:01:06;92229.75;;;22.20
72405;BMP280;60395;52.020;113.548;2023-07-29T14:04:09;92232.09;;;22.15
72405;BMP280;60395;52.020;113.548;2023-07-29T14:07:12;92239.25;;;22.08
72405;BMP280;60395;52.020;113.548;2023-07-29T14:10:16;92234.34;;;22.02
72405;BMP280;60395;52.020;113.548;2023-07-29T14:13:19;92235.53;;;21.95
72405;BMP280;60395;52.020;113.548;2023-07-29T14:16:22;92235.34;;;21.88
72405;BMP280;60395;52.020;113.548;2023-07-29T14:19:25;92228.38;;;21.83
72405;BMP280;60395;52.020;113.548;2023-07-29T14:22:29;92234.50;;;21.81
72405;BMP280;60395;52.020;113.548;2023-07-29T14:25:32;92239.34;;;21.79
72405;BMP280;60395;52.020;113.548;2023-07-29T14:28:36;92241.88;;;21.81
72405;BMP280;60395;52.020;113.548;2023-07-29T14:31:39;92246.66;;;21.89
72405;BMP280;60395;52.020;113.548;2023-07-29T14:34:43;92244.06;;;21.97
72405;BMP280;60395;52.020;113.548;2023-07-29T14:37:46;92242.91;;;21.94
72405;BMP280;60395;52.020;113.548;2023-07-29T14:40:49;92249.28;;;21.80
72405;BMP280;60395;52.020;113.548;2023-07-29T14:43:54;92251.34;;;21.69
72405;BMP280;60395;52.020;113.548;2023-07-29T14:46:57;92254.72;;;21.59
72405;BMP280;60395;52.020;113.548;2023-07-29T14:50:01;92252.19;;;21.57
72405;BMP280;60395;52.020;113.548;2023-07-29T14:53:04;92250.78;;;21.58
72405;BMP280;60395;52.020;113.548;2023-07-29T14:56:07;92240.53;;;21.52
72405;BMP280;60395;52.020;113.548;2023-07-29T14:59:10;92247.53;;;21.47
72405;BMP280;60395;52.020;113.548;2023-07-29T15:02:14;92251.66;;;21.35
72405;BMP280;60395;52.020;113.548;2023-07-29T15:05:17;92252.34;;;21.25
72405;BMP280;60395;52.020;113.548;2023-07-29T15:08:20;92262.16;;;21.18
72405;BMP280;60395;52.020;113.548;2023-07-29T15:11:23;92248.06;;;21.09
72405;BMP280;60395;52.020;113.548;2023-07-29T15:14:27;92261.06;;;21.05
72405;BMP280;60395;52.020;113.548;2023-07-29T15:17:30;92257.16;;;20.93
72405;BMP280;60395;52.020;113.548;2023-07-29T15:20:34;92259.22;;;20.82
72405;BMP280;60395;52.020;113.548;2023-07-29T15:23:37;92259.34;;;20.69
72405;BMP280;60395;52.020;113.548;2023-07-29T15:26:40;92258.22;;;20.56
72405;BMP280;60395;52.020;113.548;2023-07-29T15:29:44;92256.84;;;20.46
72405;BMP280;60395;52.020;113.548;2023-07-29T15:32:47;92257.25;;;20.40
72405;BMP280;60395;52.020;113.548;2023-07-29T15:35:51;92254.81;;;20.36
72405;BMP280;60395;52.020;113.548;2023-07-29T15:38:55;92254.56;;;20.29
72405;BMP280;60395;52.020;113.548;2023-07-29T15:41:58;92249.09;;;20.21
72405;BMP280;60395;52.020;113.548;2023-07-29T15:45:01;92254.31;;;20.23
72405;BMP280;60395;52.020;113.548;2023-07-29T15:48:04;92260.41;;;20.21
72405;BMP280;60395;52.020;113.548;2023-07-29T15:51:08;92255.44;;;20.15
72405;BMP280;60395;52.020;113.548;2023-07-29T15:54:11;92247.97;;;20.07
72405;BMP280;60395;52.020;113.548;2023-07-29T15:57:15;92247.06;;;20.00
72405;BMP280;60395;52.020;113.548;2023-07-29T16:00:18;92255.91;;;19.97
72405;BMP280;60395;52.020;113.548;2023-07-29T16:03:22;92250.34;;;19.90
72405;BMP280;60395;52.020;113.548;2023-07-29T16:06:26;92251.34;;;19.85
72405;BMP280;60395;52.020;113.548;2023-07-29T16:09:29;92258.84;;;19.82
72405;BMP280;60395;52.020;113.548;2023-07-29T16:12:33;92262.41;;;19.79
72405;BMP280;60395;52.020;113.548;2023-07-29T16:15:44;92258.44;;;19.78
72405;BMP280;60395;52.020;113.548;2023-07-29T16:18:47;92265.56;;;19.81
72405;BMP280;60395;52.020;113.548;2023-07-29T16:21:50;92258.84;;;19.93
72405;BMP280;60395;52.020;113.548;2023-07-29T16:24:54;92256.19;;;19.93
72405;BMP280;60395;52.020;113.548;2023-07-29T16:27:57;92257.84;;;19.98
72405;BMP280;60395;52.020;113.548;2023-07-29T16:31:00;92258.47;;;19.99
72405;BMP280;60395;52.020;113.548;2023-07-29T16:34:03;92256.97;;;20.02
72405;BMP280;60395;52.020;113.548;2023-07-29T16:37:07;92263.56;;;20.13
72405;BMP280;60395;52.020;113.548;2023-07-29T16:40:10;92262.69;;;20.27
72405;BMP280;60395;52.020;113.548;2023-07-29T16:43:14;92259.66;;;20.55
72405;BMP280;60395;52.020;113.548;2023-07-29T16:46:17;92263.78;;;20.83
72405;BMP280;60395;52.020;113.548;2023-07-29T16:49:20;92276.94;;;21.07
72405;BMP280;60395;52.020;113.548;2023-07-29T16:52:23;92280.59;;;21.22
72405;BMP280;60395;52.020;113.548;2023-07-29T16:55:27;92286.16;;;21.29
72405;BMP280;60395;52.020;113.548;2023-07-29T16:58:30;92288.31;;;21.37
72405;BMP280;60395;52.020;113.548;2023-07-29T17:01:33;92293.50;;;21.39
72405;BMP280;60395;52.020;113.548;2023-07-29T17:04:36;92286.88;;;21.38
72405;BMP280;60395;52.020;113.548;2023-07-29T17:07:40;92287.94;;;21.32
72405;BMP280;60395;52.020;113.548;2023-07-29T17:10:43;92284.38;;;21.25
72405;BMP280;60395;52.020;113.548;2023-07-29T17:13:46;92281.91;;;21.13
72405;BMP280;60395;52.020;113.548;2023-07-29T17:16:49;92280.88;;;21.08